createdAt,value
2019-05-26T00:00:55.487Z,98831.36
2019-05-26T00:03:23.966Z,98832.25
2019-05-26T00:05:52.416Z,98831.33
2019-05-26T00:08:21.137Z,98833.07
2019-05-26T00:10:49.784Z,98835.70
2019-05-26T00:13:18.573Z,98828.25
2019-05-26T00:15:47.157Z,98827.82
2019-05-26T00:18:15.607Z,98822.98
2019-05-26T00:20:44.720Z,98824.30
2019-05-26T00:23:13.199Z,98814.58
2019-05-26T00:25:41.766Z,98813.27
2019-05-26T00:28:10.271Z,98812.83
2019-05-26T00:30:39.110Z,98809.33
2019-05-26T00:33:07.637Z,98809.34
2019-05-26T00:35:36.203Z,98803.61
2019-05-26T00:38:04.746Z,98808.05
2019-05-26T00:40:33.424Z,98807.59
2019-05-26T00:43:02.080Z,98802.74
2019-05-26T00:45:30.731Z,98800.56
2019-05-26T00:47:59.246Z,98790.42
2019-05-26T00:50:27.884Z,98795.75
2019-05-26T00:52:57.041Z,98793.94
2019-05-26T00:55:25.950Z,98789.08
2019-05-26T00:57:54.540Z,98784.22
2019-05-26T01:00:40.477Z,98785.98
2019-05-26T01:03:10.587Z,98785.11
2019-05-26T01:05:39.164Z,98782.46
2019-05-26T01:08:08.348Z,98783.41
2019-05-26T01:10:37.463Z,98779.83
2019-05-26T01:13:06.865Z,98788.61
2019-05-26T01:15:35.305Z,98789.94
2019-05-26T01:18:04.958Z,98787.68
2019-05-26T01:20:33.634Z,98793.42
2019-05-26T01:23:02.291Z,98787.70
2019-05-26T01:25:31.009Z,98789.42
2019-05-26T01:27:59.896Z,98784.56
2019-05-26T01:30:36.730Z,98779.69
2019-05-26T01:33:06.683Z,98776.17
2019-05-26T01:35:38.561Z,98780.13
2019-05-26T01:38:22.399Z,98776.09
2019-05-26T01:40:43.725Z,98780.94
2019-05-26T01:43:12.384Z,98778.72
2019-05-26T01:45:41.119Z,98771.63
2019-05-26T01:48:10.033Z,98767.69
2019-05-26T01:50:38.865Z,98782.24
2019-05-26T01:53:07.908Z,98776.05
2019-05-26T01:55:36.525Z,98776.52
2019-05-26T01:58:05.594Z,98773.84
2019-05-26T02:00:34.064Z,98771.19
2019-05-26T02:03:02.841Z,98771.16
2019-05-26T02:05:31.293Z,98766.77
2019-05-26T02:07:59.926Z,98765.45
2019-05-26T02:10:28.547Z,98769.86
2019-05-26T02:12:57.196Z,98758.88
2019-05-26T02:15:26.452Z,98762.42
2019-05-26T02:17:54.973Z,98764.28
2019-05-26T02:20:24.468Z,98761.60
2019-05-26T02:22:52.959Z,98762.50
2019-05-26T02:25:22.141Z,98751.87
2019-05-26T02:27:50.919Z,98759.41
2019-05-26T02:30:20.147Z,98753.66
2019-05-26T02:32:48.842Z,98750.97
2019-05-26T02:35:18.415Z,98751.83
2019-05-26T02:37:47.179Z,98747.77
2019-05-26T02:40:17.045Z,98746.39
2019-05-26T02:42:45.685Z,98741.48
2019-05-26T02:45:17.826Z,98740.56
2019-05-26T02:47:46.439Z,98736.55
2019-05-26T02:50:16.112Z,98740.03
2019-05-26T02:52:44.818Z,98741.78
2019-05-26T02:55:14.420Z,98742.20
2019-05-26T02:57:43.046Z,98739.20
2019-05-26T03:00:13.999Z,98742.22
2019-05-26T03:02:43.093Z,98740.39
2019-05-26T03:05:13.888Z,98738.17
2019-05-26T03:07:44.088Z,98736.37
2019-05-26T03:10:14.519Z,98734.58
2019-05-26T03:12:43.840Z,98735.87
2019-05-26T03:15:14.274Z,98731.88
2019-05-26T03:17:43.499Z,98731.89
2019-05-26T03:20:14.186Z,98733.20
2019-05-26T03:22:43.562Z,98722.57
2019-05-26T03:25:13.335Z,98724.33
2019-05-26T03:27:41.992Z,98713.72
2019-05-26T03:30:10.790Z,98715.94
2019-05-26T03:32:39.648Z,98717.27
2019-05-26T03:35:10.424Z,98712.81
2019-05-26T03:37:39.017Z,98709.30
2019-05-26T03:40:09.546Z,98713.63
2019-05-26T03:42:38.196Z,98707.41
2019-05-26T03:45:09.670Z,98709.18
2019-05-26T03:47:38.270Z,98711.38
2019-05-26T03:50:08.850Z,98709.56
2019-05-26T03:52:37.475Z,98710.83
2019-05-26T03:55:07.868Z,98710.33
2019-05-26T03:57:36.389Z,98708.09
2019-05-26T04:00:08.526Z,98712.42
2019-05-26T04:02:36.367Z,98713.20
2019-05-26T04:05:07.165Z,98707.86
2019-05-26T04:07:35.824Z,98702.48
2019-05-26T04:10:07.069Z,98699.34
2019-05-26T04:12:35.552Z,98694.44
2019-05-26T04:15:05.964Z,98694.87
2019-05-26T04:17:34.575Z,98694.37
2019-05-26T04:20:05.026Z,98695.25
2019-05-26T04:22:33.679Z,98692.56
2019-05-26T04:25:02.320Z,98695.20
2019-05-26T04:27:30.772Z,98693.38
2019-05-26T04:29:59.435Z,98689.39
2019-05-26T04:32:27.990Z,98690.72
2019-05-26T04:34:56.505Z,98691.58
2019-05-26T04:37:25.229Z,98693.30
2019-05-26T04:39:53.882Z,98683.53
2019-05-26T04:42:22.670Z,98686.20
2019-05-26T04:44:51.255Z,98690.16
2019-05-26T04:47:19.985Z,98692.77
2019-05-26T04:49:48.620Z,98679.91
2019-05-26T04:52:17.343Z,98686.52
2019-05-26T04:54:45.991Z,98691.78
2019-05-26T04:57:14.718Z,98690.91
2019-05-26T04:59:43.366Z,98684.70
2019-05-26T05:02:12.108Z,98684.68
2019-05-26T05:04:40.597Z,98681.52
2019-05-26T05:07:09.049Z,98686.78
2019-05-26T05:09:37.540Z,98676.98
2019-05-26T05:12:06.310Z,98676.50
2019-05-26T05:14:34.927Z,98676.45
2019-05-26T05:17:03.537Z,98677.30
2019-05-26T05:19:32.033Z,98686.06
2019-05-26T05:22:00.602Z,98680.22
2019-05-26T05:24:29.094Z,98675.70
2019-05-26T05:26:57.544Z,98680.02
2019-05-26T05:29:26.134Z,98673.29
2019-05-26T05:31:54.742Z,98678.52
2019-05-26T05:34:23.687Z,98678.89
2019-05-26T05:36:52.135Z,98676.63
2019-05-26T05:39:20.836Z,98671.70
2019-05-26T05:41:49.491Z,98668.95
2019-05-26T05:44:18.172Z,98673.23
2019-05-26T05:46:46.827Z,98669.22
2019-05-26T05:49:15.294Z,98673.56
2019-05-26T05:51:43.975Z,98665.94
2019-05-26T05:54:12.604Z,98669.84
2019-05-26T05:56:41.091Z,98662.67
2019-05-26T05:59:09.544Z,98670.55
2019-05-26T06:01:38.226Z,98659.80
2019-05-26T06:04:06.739Z,98666.45
2019-05-26T06:06:35.460Z,98661.56
2019-05-26T06:09:05.392Z,98669.05
2019-05-26T06:11:33.886Z,98669.02
2019-05-26T06:14:02.465Z,98657.05
2019-05-26T06:16:31.112Z,98670.77
2019-05-26T06:18:59.826Z,98666.75
2019-05-26T06:21:28.453Z,98669.76
2019-05-26T06:23:56.930Z,98663.48
2019-05-26T06:26:25.524Z,98663.77
2019-05-26T06:28:54.320Z,98658.80
2019-05-26T06:31:22.886Z,98659.25
2019-05-26T06:33:51.372Z,98662.69
2019-05-26T06:36:20.019Z,98657.25
2019-05-26T06:38:48.748Z,98659.77
2019-05-26T06:41:32.450Z,98653.45
2019-05-26T06:43:47.666Z,98655.66
2019-05-26T06:46:16.244Z,98662.70
2019-05-26T06:48:44.684Z,98660.91
2019-05-26T06:51:13.354Z,98659.84
2019-05-26T06:53:42.004Z,98663.66
2019-05-26T06:56:10.709Z,98659.04
2019-05-26T06:58:39.368Z,98661.09
2019-05-26T07:01:07.855Z,98658.27
2019-05-26T07:03:36.423Z,98653.43
2019-05-26T07:06:05.289Z,98652.09
2019-05-26T07:08:33.736Z,98651.06
2019-05-26T07:11:02.252Z,98651.02
2019-05-26T07:13:30.874Z,98652.98
2019-05-26T07:15:59.585Z,98643.40
2019-05-26T07:18:28.341Z,98651.31
2019-05-26T07:20:57.293Z,98652.92
2019-05-26T07:23:25.938Z,98659.73
2019-05-26T07:25:54.597Z,98646.81
2019-05-26T07:28:23.326Z,98658.27
2019-05-26T07:30:51.985Z,98660.86
2019-05-26T07:33:20.707Z,98659.30
2019-05-26T07:35:50.020Z,98656.50
2019-05-26T07:38:19.004Z,98652.30
2019-05-26T07:40:47.635Z,98656.27
2019-05-26T07:43:16.393Z,98646.59
2019-05-26T07:45:45.009Z,98644.67
2019-05-26T07:48:13.694Z,98648.89
2019-05-26T07:50:42.194Z,98647.69
2019-05-26T07:53:10.774Z,98648.38
2019-05-26T07:55:39.472Z,98641.70
2019-05-26T07:58:08.183Z,98638.09
2019-05-26T08:00:36.937Z,98636.98
2019-05-26T08:03:05.502Z,98637.81
2019-05-26T08:05:34.235Z,98628.97
2019-05-26T08:08:12.054Z,98624.46
2019-05-26T08:10:33.245Z,98649.16
2019-05-26T08:13:01.776Z,98636.02
2019-05-26T08:15:30.526Z,98632.24
2019-05-26T08:17:59.183Z,98620.78
2019-05-26T08:20:27.942Z,98633.84
2019-05-26T08:22:56.533Z,98628.34
2019-05-26T08:25:25.254Z,98625.20
2019-05-26T08:27:53.901Z,98628.96
2019-05-26T08:30:22.713Z,98625.62
2019-05-26T08:32:51.269Z,98618.57
2019-05-26T08:35:19.954Z,98612.42
2019-05-26T08:37:48.672Z,98610.88
2019-05-26T08:40:19.951Z,98619.95
2019-05-26T08:42:50.375Z,98601.65
2019-05-26T08:45:22.048Z,98611.70
2019-05-26T08:47:51.446Z,98612.55
2019-05-26T08:50:21.595Z,98603.98
2019-05-26T08:52:50.408Z,98605.94
2019-05-26T08:55:19.491Z,98603.96
2019-05-26T08:57:48.057Z,98596.88
2019-05-26T09:00:17.581Z,98606.58
2019-05-26T09:02:46.361Z,98604.85
2019-05-26T09:05:15.580Z,98601.72
2019-05-26T09:07:44.236Z,98609.28
2019-05-26T09:10:13.364Z,98601.09
2019-05-26T09:12:41.922Z,98607.38
2019-05-26T09:15:10.719Z,98607.99
2019-05-26T09:17:39.451Z,98597.29
2019-05-26T09:20:11.350Z,98604.33
2019-05-26T09:22:40.714Z,98583.80
2019-05-26T09:25:09.545Z,98607.63
2019-05-26T09:27:38.024Z,98601.34
2019-05-26T09:30:07.697Z,98618.84
2019-05-26T09:32:36.686Z,98606.20
2019-05-26T09:35:07.514Z,98611.72
2019-05-26T09:37:36.317Z,98607.55
2019-05-26T09:40:09.460Z,98607.55
2019-05-26T09:42:38.169Z,98611.22
2019-05-26T09:45:08.349Z,98595.23
2019-05-26T09:47:37.080Z,98604.26
2019-05-26T09:50:06.845Z,98604.26
2019-05-26T09:52:35.522Z,98603.58
2019-05-26T09:55:08.057Z,98596.69
2019-05-26T09:57:36.907Z,98596.69
2019-05-26T10:00:07.429Z,98594.16
2019-05-26T10:02:36.093Z,98599.23
2019-05-26T10:05:06.430Z,98596.17
2019-05-26T10:07:34.998Z,98595.14
2019-05-26T10:10:05.529Z,98592.44
2019-05-26T10:15:10.486Z,98589.25
2019-05-26T10:17:39.173Z,98577.51
2019-05-26T10:20:09.445Z,98575.53
2019-05-26T10:22:37.993Z,98576.06
2019-05-26T10:25:07.532Z,98591.25
2019-05-26T10:27:36.314Z,98582.98
2019-05-26T10:30:07.825Z,98572.66
2019-05-26T10:32:36.266Z,98586.66
2019-05-26T10:35:08.017Z,98576.18
2019-05-26T10:37:36.560Z,98569.47
2019-05-26T10:40:07.145Z,98564.58
2019-05-26T10:42:35.853Z,98571.77
2019-05-26T10:45:07.492Z,98573.80
2019-05-26T10:47:36.006Z,98578.47
2019-05-26T10:50:09.541Z,98558.48
2019-05-26T10:52:38.304Z,98568.92
2019-05-26T10:55:07.884Z,98577.56
2019-05-26T10:57:36.674Z,98566.17
2019-05-26T11:00:07.544Z,98572.02
2019-05-26T11:02:36.126Z,98567.50
2019-05-26T11:05:07.210Z,98570.27
2019-05-26T11:07:36.010Z,98572.26
2019-05-26T11:10:06.407Z,98559.16
2019-05-26T11:12:35.163Z,98551.88
2019-05-26T11:15:05.748Z,98549.98
2019-05-26T11:17:34.339Z,98551.25
2019-05-26T11:20:03.251Z,98551.13
2019-05-26T11:22:31.735Z,98540.30
2019-05-26T11:25:00.327Z,98547.50
2019-05-26T11:27:29.060Z,98545.05
2019-05-26T11:29:57.505Z,98534.41
2019-05-26T11:32:26.128Z,98537.97
2019-05-26T11:35:01.503Z,98535.98
2019-05-26T11:37:25.120Z,98535.20
2019-05-26T11:39:53.569Z,98528.87
2019-05-26T11:42:22.083Z,98530.56
2019-05-26T11:44:50.533Z,98526.56
2019-05-26T11:47:19.156Z,98524.41
2019-05-26T11:49:47.603Z,98528.84
2019-05-26T11:52:19.966Z,98521.91
2019-05-26T11:54:46.446Z,98518.53
2019-05-26T11:57:15.098Z,98519.89
2019-05-26T11:59:47.173Z,98521.02
2019-05-26T12:02:13.750Z,98512.48
2019-05-26T12:04:42.248Z,98510.50
2019-05-26T12:07:10.743Z,98508.33
2019-05-26T12:09:39.238Z,98513.63
2019-05-26T12:12:07.817Z,98514.57
2019-05-26T12:14:36.321Z,98515.11
2019-05-26T12:17:05.014Z,98510.55
2019-05-26T12:19:33.502Z,98502.62
2019-05-26T12:22:01.949Z,98507.23
2019-05-26T12:24:30.715Z,98501.06
2019-05-26T12:26:59.318Z,98497.98
2019-05-26T12:29:27.816Z,98490.27
2019-05-26T12:31:56.532Z,98488.33
2019-05-26T12:34:24.994Z,98491.23
2019-05-26T12:36:53.491Z,98485.00
2019-05-26T12:39:21.938Z,98478.38
2019-05-26T12:41:50.531Z,98492.06
2019-05-26T12:44:18.966Z,98488.01
2019-05-26T12:46:47.627Z,98483.14
2019-05-26T12:49:16.085Z,98494.28
2019-05-26T12:51:44.685Z,98489.20
2019-05-26T12:54:13.141Z,98484.63
2019-05-26T12:56:41.735Z,98489.75
2019-05-26T12:59:10.181Z,98481.23
2019-05-26T13:01:38.799Z,98479.02
2019-05-26T13:04:07.459Z,98475.71
2019-05-26T13:06:36.222Z,98482.28
2019-05-26T13:09:08.267Z,98483.44
2019-05-26T13:11:36.891Z,98485.83
2019-05-26T13:14:05.827Z,98479.95
2019-05-26T13:16:35.949Z,98491.56
2019-05-26T13:19:12.132Z,98485.83
2019-05-26T13:25:20.385Z,98494.79
2019-05-26T13:27:50.485Z,98491.02
2019-05-26T13:30:26.891Z,98480.63
2019-05-26T13:32:55.398Z,98483.64
2019-05-26T13:35:23.833Z,98484.09
2019-05-26T13:37:52.715Z,98486.91
2019-05-26T13:40:21.418Z,98476.47
2019-05-26T13:42:49.861Z,98475.16
2019-05-26T13:45:22.949Z,98473.34
2019-05-26T13:47:49.148Z,98475.73
2019-05-26T13:50:18.478Z,98474.18
2019-05-26T13:52:46.923Z,98476.39
2019-05-26T13:55:16.461Z,98465.27
2019-05-26T13:57:44.911Z,98467.15
2019-05-26T14:00:15.650Z,98459.53
2019-05-26T14:02:44.241Z,98455.98
2019-05-26T14:05:14.636Z,98458.66
2019-05-26T14:07:43.082Z,98457.54
2019-05-26T14:10:12.219Z,98456.59
2019-05-26T14:12:40.843Z,98455.25
2019-05-26T14:15:10.519Z,98456.66
2019-05-26T14:17:39.382Z,98452.67
2019-05-26T14:20:10.007Z,98455.09
2019-05-26T14:22:38.507Z,98446.75
2019-05-26T14:25:08.031Z,98440.95
2019-05-26T14:27:36.570Z,98445.55
2019-05-26T14:30:10.450Z,98440.31
2019-05-26T14:32:38.948Z,98427.88
2019-05-26T14:35:07.624Z,98429.95
2019-05-26T14:37:36.173Z,98423.84
2019-05-26T14:40:08.743Z,98430.06
2019-05-26T14:42:37.221Z,98427.97
2019-05-26T14:45:09.410Z,98427.48
2019-05-26T14:47:37.992Z,98418.63
2019-05-26T14:50:10.580Z,98419.17
2019-05-26T14:52:39.403Z,98411.27
2019-05-26T14:55:08.785Z,98411.14
2019-05-26T14:57:37.296Z,98410.45
2019-05-26T15:00:08.191Z,98414.05
2019-05-26T15:02:36.717Z,98404.05
2019-05-26T15:05:10.168Z,98401.66
2019-05-26T15:07:38.868Z,98409.97
2019-05-26T15:10:08.996Z,98399.98
2019-05-26T15:12:37.689Z,98407.21
2019-05-26T15:15:07.581Z,98403.36
2019-05-26T15:17:36.095Z,98390.08
2019-05-26T15:20:06.841Z,98383.83
2019-05-26T15:22:36.114Z,98389.19
2019-05-26T15:25:07.240Z,98383.64
2019-05-26T15:27:36.506Z,98382.46
2019-05-26T15:30:08.258Z,98382.37
2019-05-26T15:32:37.072Z,98383.61
2019-05-26T15:35:08.628Z,98380.58
2019-05-26T15:37:37.146Z,98373.06
2019-05-26T15:40:07.600Z,98376.97
2019-05-26T15:42:36.498Z,98372.98
2019-05-26T15:45:09.660Z,98363.63
2019-05-26T15:47:38.846Z,98358.53
2019-05-26T15:50:11.449Z,98358.38
2019-05-26T15:52:39.696Z,98372.50
2019-05-26T15:55:08.581Z,98356.32
2019-05-26T15:57:37.095Z,98351.59
2019-05-26T16:00:07.930Z,98347.58
2019-05-26T16:02:36.554Z,98354.87
2019-05-26T16:05:07.450Z,98340.70
2019-05-26T16:07:36.176Z,98332.11
2019-05-26T16:10:07.895Z,98344.10
2019-05-26T16:12:36.609Z,98345.05
2019-05-26T16:15:07.712Z,98342.92
2019-05-26T16:17:38.693Z,98330.84
2019-05-26T16:20:08.472Z,98336.09
2019-05-26T16:22:37.170Z,98328.00
2019-05-26T16:25:06.704Z,98324.37
2019-05-26T16:27:35.428Z,98334.48
2019-05-26T16:30:06.229Z,98321.67
2019-05-26T16:32:34.942Z,98324.95
2019-05-26T16:35:03.948Z,98327.08
2019-05-26T16:37:32.615Z,98319.88
2019-05-26T16:40:01.073Z,98319.64
2019-05-26T16:42:29.775Z,98324.13
2019-05-26T16:44:58.218Z,98330.98
2019-05-26T16:47:26.694Z,98320.98
2019-05-26T16:49:55.384Z,98326.25
2019-05-26T16:52:23.893Z,98320.60
2019-05-26T16:54:52.439Z,98319.33
2019-05-26T16:57:20.898Z,98312.23
2019-05-26T16:59:49.568Z,98310.81
2019-05-26T17:02:18.068Z,98307.95
2019-05-26T17:04:46.618Z,98304.64
2019-05-26T17:07:15.250Z,98301.81
2019-05-26T17:09:43.761Z,98303.08
2019-05-26T17:12:12.388Z,98302.44
2019-05-26T17:14:40.921Z,98301.23
2019-05-26T17:17:14.632Z,98307.66
2019-05-26T17:19:39.638Z,98306.07
2019-05-26T17:22:08.154Z,98299.91
2019-05-26T17:24:36.780Z,98307.55
2019-05-26T17:27:05.497Z,98298.64
2019-05-26T17:29:34.089Z,98302.59
2019-05-26T17:32:02.543Z,98304.33
2019-05-26T17:34:31.159Z,98300.23
2019-05-26T17:36:59.603Z,98292.11
2019-05-26T17:39:28.246Z,98301.58
2019-05-26T17:41:56.691Z,98291.86
2019-05-26T17:44:25.289Z,98290.59
2019-05-26T17:46:53.726Z,98282.70
2019-05-26T17:49:22.372Z,98275.62
2019-05-26T17:51:50.880Z,98277.05
2019-05-26T17:54:19.368Z,98280.74
2019-05-26T17:56:47.900Z,98277.27
2019-05-26T17:59:16.441Z,98277.41
2019-05-26T18:01:44.928Z,98278.75
2019-05-26T18:04:13.500Z,98273.90
2019-05-26T18:06:41.978Z,98278.06
2019-05-26T18:09:10.632Z,98268.75
2019-05-26T18:11:39.120Z,98269.38
2019-05-26T18:14:07.636Z,98262.78
2019-05-26T18:16:36.135Z,98251.66
2019-05-26T18:19:04.658Z,98251.66
2019-05-26T18:21:33.274Z,98254.34
2019-05-26T18:24:01.758Z,98251.26
2019-05-26T18:26:30.255Z,98245.03
2019-05-26T18:28:58.816Z,98249.13
2019-05-26T18:31:29.195Z,98248.32
2019-05-26T18:33:57.566Z,98247.64
2019-05-26T18:36:26.151Z,98240.94
2019-05-26T18:38:54.804Z,98240.67
2019-05-26T18:41:23.383Z,98238.14
2019-05-26T18:43:51.873Z,98237.81
2019-05-26T18:46:20.413Z,98235.61
2019-05-26T18:48:48.996Z,98240.56
2019-05-26T18:51:17.521Z,98243.75
2019-05-26T18:53:46.142Z,98237.20
2019-05-26T18:56:14.680Z,98241.76
2019-05-26T18:58:43.412Z,98240.41
2019-05-26T19:01:11.878Z,98218.55
2019-05-26T19:03:40.497Z,98228.87
2019-05-26T19:06:09.272Z,98219.89
2019-05-26T19:08:37.848Z,98219.09
2019-05-26T19:11:06.377Z,98213.62
2019-05-26T19:13:34.934Z,98209.71
2019-05-26T19:16:03.585Z,98211.52
2019-05-26T19:18:32.459Z,98204.90
2019-05-26T19:21:00.930Z,98206.74
2019-05-26T19:23:29.663Z,98207.36
2019-05-26T19:25:58.238Z,98209.70
2019-05-26T19:28:26.725Z,98218.79
2019-05-26T19:30:55.306Z,98212.30
2019-05-26T19:33:23.784Z,98218.53
2019-05-26T19:35:52.503Z,98218.93
2019-05-26T19:38:21.144Z,98228.23
2019-05-26T19:40:49.667Z,98223.42
2019-05-26T19:43:18.197Z,98227.11
2019-05-26T19:45:46.700Z,98227.17
2019-05-26T19:48:15.233Z,98227.78
2019-05-26T19:50:44.209Z,98230.17
2019-05-26T19:53:12.658Z,98225.28
2019-05-26T19:55:41.157Z,98230.44
2019-05-26T19:58:09.680Z,98231.38
2019-05-26T20:00:38.279Z,98224.69
2019-05-26T20:03:06.810Z,98233.76
2019-05-26T20:05:35.486Z,98234.16
2019-05-26T20:08:04.267Z,98230.55
2019-05-26T20:10:32.800Z,98229.67
2019-05-26T20:13:01.313Z,98227.00
2019-05-26T20:15:29.920Z,98222.98
2019-05-26T20:17:58.435Z,98223.81
2019-05-26T20:20:26.935Z,98218.93
2019-05-26T20:22:55.378Z,98220.04
2019-05-26T20:25:23.815Z,98217.90
2019-05-26T20:27:52.476Z,98216.16
2019-05-26T20:30:22.300Z,98212.22
2019-05-26T20:32:51.282Z,98210.05
2019-05-26T20:35:20.216Z,98213.80
2019-05-26T20:37:48.723Z,98212.52
2019-05-26T20:40:17.988Z,98212.13
2019-05-26T20:42:46.632Z,98207.50
2019-05-26T20:45:17.039Z,98204.82
2019-05-26T20:47:45.544Z,98198.93
2019-05-26T20:50:28.049Z,98196.66
2019-05-26T20:52:45.081Z,98199.63
2019-05-26T20:55:14.903Z,98192.23
2019-05-26T20:57:43.352Z,98191.50
2019-05-26T21:00:13.876Z,98193.58
2019-05-26T21:02:43.165Z,98193.08
2019-05-26T21:05:12.136Z,98190.66
2019-05-26T21:07:40.569Z,98194.14
2019-05-26T21:10:10.056Z,98188.78
2019-05-26T21:12:38.587Z,98190.98
2019-05-26T21:15:08.169Z,98196.08
2019-05-26T21:17:36.907Z,98192.06
2019-05-26T21:20:09.996Z,98188.52
2019-05-26T21:22:38.488Z,98189.86
2019-05-26T21:25:07.861Z,98191.20
2019-05-26T21:27:36.607Z,98188.19
2019-05-26T21:30:09.378Z,98187.28
2019-05-26T21:32:37.922Z,98183.73
2019-05-26T21:35:07.783Z,98179.39
2019-05-26T21:37:36.523Z,98174.98
2019-05-26T21:40:09.465Z,98175.84
2019-05-26T21:42:38.126Z,98174.64
2019-05-26T21:45:07.553Z,98178.13
2019-05-26T21:47:36.128Z,98179.53
2019-05-26T21:50:07.061Z,98178.33
2019-05-26T21:52:35.700Z,98180.47
2019-05-26T21:55:05.917Z,98161.73
2019-05-26T21:57:34.357Z,98173.38
2019-05-26T22:00:03.045Z,98169.06
2019-05-26T22:02:31.615Z,98169.02
2019-05-26T22:05:00.121Z,98169.27
2019-05-26T22:07:28.553Z,98168.33
2019-05-26T22:09:57.029Z,98159.43
2019-05-26T22:12:25.475Z,98155.28
2019-05-26T22:14:53.968Z,98163.23
2019-05-26T22:17:22.497Z,98156.62
2019-05-26T22:19:50.953Z,98158.09
2019-05-26T22:22:19.462Z,98154.55
2019-05-26T22:24:47.977Z,98146.59
2019-05-26T22:27:16.661Z,98139.03
2019-05-26T22:29:45.116Z,98150.60
2019-05-26T22:32:13.727Z,98142.97
2019-05-26T22:34:42.171Z,98138.16
2019-05-26T22:37:10.794Z,98133.34
2019-05-26T22:39:39.445Z,98134.75
2019-05-26T22:42:08.172Z,98125.48
2019-05-26T22:44:36.697Z,98118.60
2019-05-26T22:47:05.388Z,98120.48
2019-05-26T22:49:33.839Z,98122.32
2019-05-26T22:52:02.285Z,98115.23
2019-05-26T22:54:30.764Z,98117.50
2019-05-26T22:56:59.328Z,98116.56
2019-05-26T22:59:27.815Z,98115.77
2019-05-26T23:01:56.454Z,98115.83
2019-05-26T23:04:24.947Z,98109.72
2019-05-26T23:06:53.452Z,98112.96
2019-05-26T23:09:21.936Z,98110.82
2019-05-26T23:11:50.527Z,98109.28
2019-05-26T23:14:19.004Z,98109.76
2019-05-26T23:16:47.585Z,98100.86
2019-05-26T23:19:19.779Z,98099.23
2019-05-26T23:21:46.489Z,98092.14
2019-05-26T23:24:14.953Z,98088.53
2019-05-26T23:26:43.526Z,98086.79
2019-05-26T23:29:11.962Z,98082.52
2019-05-26T23:31:40.439Z,98080.17
2019-05-26T23:34:08.999Z,98071.55
2019-05-26T23:36:37.713Z,98071.55
2019-05-26T23:39:07.646Z,98081.71
2019-05-26T23:41:36.694Z,98077.30
2019-05-26T23:44:05.147Z,98079.57
2019-05-26T23:46:33.700Z,98068.04
2019-05-26T23:49:02.141Z,98069.91
2019-05-26T23:51:30.717Z,98063.70
2019-05-26T23:53:59.667Z,98065.43
2019-05-26T23:56:28.106Z,98062.56
2019-05-26T23:58:56.819Z,98060.95
